sensor_id;sensor_type;location;lat;lon;timestamp;pressure;altitude;pressure_sealevel;temperature;humidity
53940;BME280;39850;43.324;21.916;2022-12-07T00:02:03;992.0;;;8.6;89.0
53940;BME280;39850;43.324;21.916;2022-12-07T00:06:44;991.0;;;8.0;90.0
53940;BME280;39850;43.324;21.916;2022-12-07T00:11:23;991.0;;;8.0;90.0
53940;BME280;39850;43.324;21.916;2022-12-07T00:16:05;991.0;;;8.0;90.0
53940;BME280;39850;43.324;21.916;2022-12-07T00:20:41;991.0;;;8.0;90.0
53940;BME280;39850;43.324;21.916;2022-12-07T00:57:36;991.0;;;8.0;92.0
53940;BME280;39850;43.324;21.916;2022-12-07T01:02:12;991.0;;;8.0;92.0
53940;BME280;39850;43.324;21.916;2022-12-07T01:06:49;991.0;;;8.0;92.0
53940;BME280;39850;43.324;21.916;2022-12-07T01:11:30;991.0;;;8.0;92.0
53940;BME280;39850;43.324;21.916;2022-12-07T01:16:13;991.0;;;8.0;92.0
53940;BME280;39850;43.324;21.916;2022-12-07T01:21:01;991.0;;;8.0;92.0
53940;BME280;39850;43.324;21.916;2022-12-07T01:25:41;991.0;;;8.0;92.0
53940;BME280;39850;43.324;21.916;2022-12-07T01:30:18;991.0;;;8.0;92.0
53940;BME280;39850;43.324;21.916;2022-12-07T01:34:54;991.0;;;8.0;92.0
53940;BME280;39850;43.324;21.916;2022-12-07T01:39:31;991.0;;;8.0;92.0
53940;BME280;39850;43.324;21.916;2022-12-07T01:44:22;991.0;;;8.0;92.0
53940;BME280;39850;43.324;21.916;2022-12-07T02:17:21;991.0;;;8.1;92.0
53940;BME280;39850;43.324;21.916;2022-12-07T02:22:51;991.0;;;8.1;92.0
53940;BME280;39850;43.324;21.916;2022-12-07T02:27:50;991.0;;;8.0;91.0
53940;BME280;39850;43.324;21.916;2022-12-07T02:32:52;991.0;;;8.0;91.0
53940;BME280;39850;43.324;21.916;2022-12-07T02:37:53;991.0;;;8.0;91.0
53940;BME280;39850;43.324;21.916;2022-12-07T02:42:48;991.0;;;8.0;91.0
53940;BME280;39850;43.324;21.916;2022-12-07T02:47:31;991.0;;;8.0;90.0
53940;BME280;39850;43.324;21.916;2022-12-07T02:52:10;991.0;;;8.0;90.0
53940;BME280;39850;43.324;21.916;2022-12-07T02:57:00;991.0;;;8.0;90.0
53940;BME280;39850;43.324;21.916;2022-12-07T03:02:07;991.0;;;8.0;90.0
53940;BME280;39850;43.324;21.916;2022-12-07T03:36:29;990.0;;;8.0;91.0
53940;BME280;39850;43.324;21.916;2022-12-07T03:41:22;990.0;;;8.0;91.0
53940;BME280;39850;43.324;21.916;2022-12-07T03:46:35;990.0;;;8.2;91.0
53940;BME280;39850;43.324;21.916;2022-12-07T03:51:40;990.0;;;8.2;91.0
53940;BME280;39850;43.324;21.916;2022-12-07T03:56:22;990.0;;;8.3;91.0
53940;BME280;39850;43.324;21.916;2022-12-07T04:01:01;990.0;;;8.3;91.0
53940;BME280;39850;43.324;21.916;2022-12-07T04:05:40;990.0;;;8.7;91.0
53940;BME280;39850;43.324;21.916;2022-12-07T04:10:19;990.0;;;8.7;91.0
53940;BME280;39850;43.324;21.916;2022-12-07T04:14:55;990.0;;;8.7;91.0
53940;BME280;39850;43.324;21.916;2022-12-07T04:19:34;990.0;;;9.1;91.0
53940;BME280;39850;43.324;21.916;2022-12-07T04:24:15;990.0;;;9.1;91.0
53940;BME280;39850;43.324;21.916;2022-12-07T04:56:27;990.0;;;8.2;94.0
53940;BME280;39850;43.324;21.916;2022-12-07T05:01:03;990.0;;;8.2;94.0
53940;BME280;39850;43.324;21.916;2022-12-07T05:05:41;990.0;;;8.2;95.0
53940;BME280;39850;43.324;21.916;2022-12-07T05:10:17;990.0;;;8.2;95.0
53940;BME280;39850;43.324;21.916;2022-12-07T05:14:53;990.0;;;8.2;95.0
53940;BME280;39850;43.324;21.916;2022-12-07T05:19:30;990.0;;;8.2;94.0
53940;BME280;39850;43.324;21.916;2022-12-07T05:24:13;990.0;;;8.2;94.0
53940;BME280;39850;43.324;21.916;2022-12-07T05:28:51;990.0;;;8.1;95.0
53940;BME280;39850;43.324;21.916;2022-12-07T05:33:28;990.0;;;8.1;95.0
53940;BME280;39850;43.324;21.916;2022-12-07T05:38:04;990.0;;;8.0;94.0
53940;BME280;39850;43.324;21.916;2022-12-07T05:42:41;990.0;;;8.0;94.0
53940;BME280;39850;43.324;21.916;2022-12-07T06:28:49;990.0;;;8.0;93.0
53940;BME280;39850;43.324;21.916;2022-12-07T06:33:26;990.0;;;8.0;93.0
53940;BME280;39850;43.324;21.916;2022-12-07T06:38:02;990.0;;;8.0;93.0
53940;BME280;39850;43.324;21.916;2022-12-07T06:42:38;990.0;;;8.0;93.0
53940;BME280;39850;43.324;21.916;2022-12-07T06:47:14;990.0;;;8.0;93.0
53940;BME280;39850;43.324;21.916;2022-12-07T06:51:50;990.0;;;8.0;93.0
53940;BME280;39850;43.324;21.916;2022-12-07T06:56:26;990.0;;;8.0;93.0
53940;BME280;39850;43.324;21.916;2022-12-07T07:01:07;990.0;;;8.0;93.0
53940;BME280;39850;43.324;21.916;2022-12-07T07:37:55;990.0;;;8.0;92.0
53940;BME280;39850;43.324;21.916;2022-12-07T07:42:31;990.0;;;8.0;92.0
53940;BME280;39850;43.324;21.916;2022-12-07T07:47:07;990.0;;;8.1;92.0
53940;BME280;39850;43.324;21.916;2022-12-07T07:51:43;990.0;;;8.1;92.0
53940;BME280;39850;43.324;21.916;2022-12-07T07:56:19;990.0;;;8.0;92.0
53940;BME280;39850;43.324;21.916;2022-12-07T08:00:56;990.0;;;8.0;92.0
53940;BME280;39850;43.324;21.916;2022-12-07T08:05:32;990.0;;;8.0;92.0
53940;BME280;39850;43.324;21.916;2022-12-07T08:10:13;990.0;;;8.1;92.0
53940;BME280;39850;43.324;21.916;2022-12-07T08:14:49;990.0;;;8.1;92.0
53940;BME280;39850;43.324;21.916;2022-12-07T08:19:26;990.0;;;8.0;91.0
53940;BME280;39850;43.324;21.916;2022-12-07T08:24:03;990.0;;;8.0;91.0
53940;BME280;39850;43.324;21.916;2022-12-07T08:56:25;990.0;;;9.8;87.0
53940;BME280;39850;43.324;21.916;2022-12-07T09:01:04;990.0;;;9.8;87.0
53940;BME280;39850;43.324;21.916;2022-12-07T09:05:40;990.0;;;9.8;87.0
53940;BME280;39850;43.324;21.916;2022-12-07T09:10:18;990.0;;;9.9;86.0
53940;BME280;39850;43.324;21.916;2022-12-07T09:14:55;990.0;;;9.9;86.0
53940;BME280;39850;43.324;21.916;2022-12-07T09:19:31;990.0;;;9.9;85.0
53940;BME280;39850;43.324;21.916;2022-12-07T09:24:08;990.0;;;9.9;85.0
53940;BME280;39850;43.324;21.916;2022-12-07T09:28:44;990.0;;;10.0;85.0
53940;BME280;39850;43.324;21.916;2022-12-07T09:33:21;990.0;;;10.0;85.0
53940;BME280;39850;43.324;21.916;2022-12-07T09:37:57;989.0;;;10.1;85.0
53940;BME280;39850;43.324;21.916;2022-12-07T09:42:39;989.0;;;10.1;85.0
53940;BME280;39850;43.324;21.916;2022-12-07T10:20:28;989.0;;;11.5;79.0
53940;BME280;39850;43.324;21.916;2022-12-07T10:25:20;989.0;;;11.5;79.0
53940;BME280;39850;43.324;21.916;2022-12-07T10:29:59;989.0;;;11.6;79.0
53940;BME280;39850;43.324;21.916;2022-12-07T10:34:38;989.0;;;11.6;79.0
53940;BME280;39850;43.324;21.916;2022-12-07T10:39:21;989.0;;;11.8;79.0
53940;BME280;39850;43.324;21.916;2022-12-07T10:43:58;989.0;;;11.8;79.0
53940;BME280;39850;43.324;21.916;2022-12-07T10:48:58;988.0;;;12.0;78.0
53940;BME280;39850;43.324;21.916;2022-12-07T10:54:10;988.0;;;12.0;78.0
53940;BME280;39850;43.324;21.916;2022-12-07T10:59:41;988.0;;;12.2;77.0
53940;BME280;39850;43.324;21.916;2022-12-07T11:04:38;988.0;;;12.2;77.0
53940;BME280;39850;43.324;21.916;2022-12-07T11:40:05;988.0;;;13.6;70.0
53940;BME280;39850;43.324;21.916;2022-12-07T11:45:10;988.0;;;13.6;70.0
53940;BME280;39850;43.324;21.916;2022-12-07T11:50:26;988.0;;;13.6;70.0
53940;BME280;39850;43.324;21.916;2022-12-07T11:55:26;988.0;;;13.6;70.0
53940;BME280;39850;43.324;21.916;2022-12-07T12:00:16;988.0;;;13.6;68.0
53940;BME280;39850;43.324;21.916;2022-12-07T12:05:13;988.0;;;13.6;68.0
53940;BME280;39850;43.324;21.916;2022-12-07T12:10:02;988.0;;;13.5;66.0
53940;BME280;39850;43.324;21.916;2022-12-07T12:15:14;988.0;;;13.5;66.0
53940;BME280;39850;43.324;21.916;2022-12-07T12:20:16;988.0;;;13.5;66.0
53940;BME280;39850;43.324;21.916;2022-12-07T12:24:57;988.0;;;13.5;66.0
53940;BME280;39850;43.324;21.916;2022-12-07T12:58:41;987.0;;;13.5;65.0
53940;BME280;39850;43.324;21.916;2022-12-07T13:03:30;987.0;;;13.5;65.0
53940;BME280;39850;43.324;21.916;2022-12-07T13:08:23;987.0;;;13.5;65.0
53940;BME280;39850;43.324;21.916;2022-12-07T13:13:33;987.0;;;13.5;65.0
53940;BME280;39850;43.324;21.916;2022-12-07T13:18:37;987.0;;;13.5;65.0
53940;BME280;39850;43.324;21.916;2022-12-07T13:23:25;987.0;;;13.5;65.0
53940;BME280;39850;43.324;21.916;2022-12-07T13:28:17;987.0;;;13.5;66.0
53940;BME280;39850;43.324;21.916;2022-12-07T13:32:59;987.0;;;13.5;66.0
53940;BME280;39850;43.324;21.916;2022-12-07T13:37:35;987.0;;;13.5;66.0
53940;BME280;39850;43.324;21.916;2022-12-07T13:42:30;987.0;;;13.5;66.0
53940;BME280;39850;43.324;21.916;2022-12-07T14:20:38;987.0;;;13.7;66.0
53940;BME280;39850;43.324;21.916;2022-12-07T14:25:23;987.0;;;13.7;66.0
53940;BME280;39850;43.324;21.916;2022-12-07T14:30:01;987.0;;;13.7;66.0
53940;BME280;39850;43.324;21.916;2022-12-07T14:34:37;987.0;;;13.7;66.0
53940;BME280;39850;43.324;21.916;2022-12-07T14:39:13;987.0;;;13.7;66.0
53940;BME280;39850;43.324;21.916;2022-12-07T14:43:50;987.0;;;13.7;66.0
53940;BME280;39850;43.324;21.916;2022-12-07T14:48:26;987.0;;;13.7;66.0
53940;BME280;39850;43.324;21.916;2022-12-07T14:53:16;987.0;;;13.7;66.0
53940;BME280;39850;43.324;21.916;2022-12-07T14:57:54;987.0;;;13.7;67.0
53940;BME280;39850;43.324;21.916;2022-12-07T15:02:30;987.0;;;13.7;67.0
53940;BME280;39850;43.324;21.916;2022-12-07T15:39:37;987.0;;;13.6;66.0
53940;BME280;39850;43.324;21.916;2022-12-07T15:44:15;987.0;;;13.6;66.0
53940;BME280;39850;43.324;21.916;2022-12-07T15:48:51;988.0;;;13.6;66.0
53940;BME280;39850;43.324;21.916;2022-12-07T15:53:27;988.0;;;13.6;66.0
53940;BME280;39850;43.324;21.916;2022-12-07T15:58:03;988.0;;;13.6;66.0
53940;BME280;39850;43.324;21.916;2022-12-07T16:02:39;988.0;;;13.6;66.0
53940;BME280;39850;43.324;21.916;2022-12-07T16:07:16;988.0;;;13.6;66.0
53940;BME280;39850;43.324;21.916;2022-12-07T16:11:52;988.0;;;13.4;66.0
53940;BME280;39850;43.324;21.916;2022-12-07T16:16:29;988.0;;;13.4;66.0
53940;BME280;39850;43.324;21.916;2022-12-07T16:21:06;988.0;;;13.1;66.0
53940;BME280;39850;43.324;21.916;2022-12-07T16:25:42;988.0;;;13.1;66.0
53940;BME280;39850;43.324;21.916;2022-12-07T16:58:02;988.0;;;12.6;69.0
53940;BME280;39850;43.324;21.916;2022-12-07T17:02:38;988.0;;;12.6;69.0
53940;BME280;39850;43.324;21.916;2022-12-07T17:07:14;988.0;;;12.6;69.0
53940;BME280;39850;43.324;21.916;2022-12-07T17:11:51;988.0;;;12.6;69.0
53940;BME280;39850;43.324;21.916;2022-12-07T17:16:29;988.0;;;12.6;69.0
53940;BME280;39850;43.324;21.916;2022-12-07T17:21:09;988.0;;;12.6;69.0
53940;BME280;39850;43.324;21.916;2022-12-07T17:25:46;988.0;;;12.6;69.0
53940;BME280;39850;43.324;21.916;2022-12-07T17:30:23;988.0;;;12.6;69.0
53940;BME280;39850;43.324;21.916;2022-12-07T17:34:59;988.0;;;12.6;69.0
53940;BME280;39850;43.324;21.916;2022-12-07T21:21:01;990.0;;;10.0;78.0
53940;BME280;39850;43.324;21.916;2022-12-07T21:25:37;990.0;;;10.0;78.0
53940;BME280;39850;43.324;21.916;2022-12-07T21:30:13;990.0;;;10.0;78.0
53940;BME280;39850;43.324;21.916;2022-12-07T21:34:49;990.0;;;10.0;78.0
53940;BME280;39850;43.324;21.916;2022-12-07T21:39:25;990.0;;;10.0;78.0
53940;BME280;39850;43.324;21.916;2022-12-07T21:44:08;990.0;;;10.0;78.0
53940;BME280;39850;43.324;21.916;2022-12-07T22:30:17;990.0;;;8.9;80.0
53940;BME280;39850;43.324;21.916;2022-12-07T22:34:54;990.0;;;8.9;80.0
53940;BME280;39850;43.324;21.916;2022-12-07T22:39:30;990.0;;;8.9;80.0
53940;BME280;39850;43.324;21.916;2022-12-07T22:44:08;990.0;;;8.9;80.0
53940;BME280;39850;43.324;21.916;2022-12-07T22:48:45;990.0;;;8.9;80.0
53940;BME280;39850;43.324;21.916;2022-12-07T22:53:24;990.0;;;8.9;80.0
53940;BME280;39850;43.324;21.916;2022-12-07T22:58:00;990.0;;;8.9;80.0
53940;BME280;39850;43.324;21.916;2022-12-07T23:02:38;990.0;;;8.9;80.0
53940;BME280;39850;43.324;21.916;2022-12-07T23:07:14;990.0;;;8.9;80.0
53940;BME280;39850;43.324;21.916;2022-12-07T23:39:26;990.0;;;9.6;80.0
53940;BME280;39850;43.324;21.916;2022-12-07T23:44:04;990.0;;;9.6;80.0
53940;BME280;39850;43.324;21.916;2022-12-07T23:48:41;990.0;;;9.6;80.0
53940;BME280;39850;43.324;21.916;2022-12-07T23:53:17;990.0;;;9.3;80.0
53940;BME280;39850;43.324;21.916;2022-12-07T23:57:53;990.0;;;9.3;80.0
